createdAt,value
2017-09-20T00:00:05.166Z,9.34
2017-09-20T00:01:04.833Z,9.39
2017-09-20T00:02:05.144Z,9.38
2017-09-20T00:03:05.128Z,9.39
2017-09-20T00:04:05.116Z,9.37
2017-09-20T00:05:05.442Z,9.38
2017-09-20T00:06:05.103Z,9.44
2017-09-20T00:07:04.761Z,9.35
2017-09-20T00:08:04.752Z,9.44
2017-09-20T00:09:04.751Z,9.39
2017-09-20T00:10:04.730Z,9.45
2017-09-20T00:11:05.065Z,9.35
2017-09-20T00:12:04.731Z,9.45
2017-09-20T00:13:04.695Z,9.39
2017-09-20T00:14:05.019Z,9.39
2017-09-20T00:15:04.676Z,9.34
2017-09-20T00:16:04.688Z,9.37
2017-09-20T00:17:05.328Z,9.34
2017-09-20T00:18:04.647Z,9.32
2017-09-20T00:19:04.636Z,9.39
2017-09-20T00:20:05.311Z,9.39
2017-09-20T00:21:04.950Z,9.42
2017-09-20T00:22:04.933Z,9.5
2017-09-20T00:23:04.595Z,9.47
2017-09-20T00:24:04.584Z,9.44
2017-09-20T00:25:04.573Z,9.47
2017-09-20T00:26:04.566Z,9.42
2017-09-20T00:27:04.555Z,9.47
2017-09-20T00:28:04.872Z,9.48
2017-09-20T00:29:05.198Z,9.52
2017-09-20T00:30:04.524Z,9.48
2017-09-20T00:31:04.514Z,9.52
2017-09-20T00:32:04.833Z,9.45
2017-09-20T00:33:04.819Z,9.48
2017-09-20T00:34:04.485Z,9.48
2017-09-20T00:35:04.798Z,9.42
2017-09-20T00:36:04.791Z,9.47
2017-09-20T00:37:05.108Z,9.42
2017-09-20T00:38:05.100Z,9.38
2017-09-20T00:39:04.797Z,9.35
2017-09-20T00:40:04.751Z,9.27
2017-09-20T00:41:04.428Z,9.38
2017-09-20T00:42:04.402Z,9.29
2017-09-20T00:43:04.386Z,9.38
2017-09-20T00:44:04.720Z,9.35
2017-09-20T00:45:04.372Z,9.39
2017-09-20T00:46:04.732Z,9.44
2017-09-20T00:47:04.696Z,9.39
2017-09-20T00:48:04.340Z,9.47
2017-09-20T00:49:04.654Z,9.45
2017-09-20T00:50:04.664Z,9.5
2017-09-20T00:51:04.659Z,9.45
2017-09-20T00:52:04.624Z,9.47
2017-09-20T00:53:04.286Z,9.48
2017-09-20T00:54:04.274Z,9.45
2017-09-20T00:55:04.922Z,9.48
2017-09-20T00:56:04.255Z,9.52
2017-09-20T00:57:04.246Z,9.47
2017-09-20T00:58:04.259Z,9.48
2017-09-20T00:59:04.569Z,9.53
2017-09-20T01:00:04.223Z,9.48
2017-09-20T01:01:04.207Z,9.48
2017-09-20T01:02:04.203Z,9.44
2017-09-20T01:03:04.519Z,9.48
2017-09-20T01:04:04.523Z,9.45
2017-09-20T01:05:04.835Z,9.48
2017-09-20T01:06:04.496Z,9.41
2017-09-20T01:07:04.474Z,9.41
2017-09-20T01:08:04.132Z,9.35
2017-09-20T01:09:04.155Z,9.27
2017-09-20T01:10:04.115Z,9.32
2017-09-20T01:11:04.098Z,9.35
2017-09-20T01:12:04.419Z,9.21
2017-09-20T01:13:04.419Z,9.2
2017-09-20T01:14:04.077Z,9.16
2017-09-20T01:15:04.083Z,9.2
2017-09-20T01:16:04.379Z,9.23
2017-09-20T01:17:04.390Z,9.24
2017-09-20T01:18:04.384Z,9.16
2017-09-20T01:19:04.682Z,9.2
2017-09-20T01:20:04.668Z,9.26
2017-09-20T01:21:04.668Z,9.16
2017-09-20T01:22:04.341Z,9.19
2017-09-20T01:23:04.036Z,9.17
2017-09-20T01:24:04.307Z,9.29
2017-09-20T01:25:04.288Z,9.21
2017-09-20T01:26:04.279Z,9.17
2017-09-20T01:27:03.947Z,9.21
2017-09-20T01:28:03.927Z,9.19
2017-09-20T01:29:03.920Z,9.19
2017-09-20T01:30:03.915Z,9.2
2017-09-20T01:31:04.226Z,9.19
2017-09-20T01:32:04.217Z,9.27
2017-09-20T01:33:03.882Z,9.19
2017-09-20T01:34:04.206Z,9.24
2017-09-20T01:35:04.193Z,9.29
2017-09-20T01:36:04.177Z,9.27
2017-09-20T01:37:04.166Z,9.27
2017-09-20T01:38:03.823Z,9.29
2017-09-20T01:39:04.140Z,9.29
2017-09-20T01:40:04.137Z,9.21
2017-09-20T01:41:04.449Z,9.16
2017-09-20T01:42:03.781Z,9.17
2017-09-20T01:43:03.772Z,9.29
2017-09-20T01:44:03.759Z,9.29
2017-09-20T01:45:04.079Z,9.17
2017-09-20T01:46:03.745Z,9.29
2017-09-20T01:47:03.731Z,9.3
2017-09-20T01:48:04.053Z,9.19
2017-09-20T01:49:03.712Z,9.29
2017-09-20T01:50:03.700Z,9.3
2017-09-20T01:51:04.032Z,9.29
2017-09-20T01:52:04.029Z,9.24
2017-09-20T01:53:04.002Z,9.37
2017-09-20T01:54:03.660Z,9.16
2017-09-20T01:55:03.653Z,9.29
2017-09-20T01:56:03.973Z,9.34
2017-09-20T01:57:03.627Z,9.35
2017-09-20T01:58:03.625Z,9.29
2017-09-20T01:59:03.610Z,9.38
2017-09-20T02:00:03.597Z,9.34
2017-09-20T02:01:03.964Z,9.27
2017-09-20T02:02:03.905Z,9.16
2017-09-20T02:03:03.572Z,9.17
2017-09-20T02:04:03.566Z,9.27
2017-09-20T02:05:03.875Z,9.23
2017-09-20T02:06:03.865Z,9.2
2017-09-20T02:07:03.857Z,9.24
2017-09-20T02:08:03.549Z,9.23
2017-09-20T02:09:04.190Z,9.16
2017-09-20T02:10:03.510Z,9.01
2017-09-20T02:11:03.519Z,9.19
2017-09-20T02:12:03.860Z,9.14
2017-09-20T02:13:03.497Z,9.14
2017-09-20T02:14:03.825Z,9.08
2017-09-20T02:15:03.486Z,9.05
2017-09-20T02:16:03.774Z,9.14
2017-09-20T02:17:04.108Z,9.17
2017-09-20T02:18:03.812Z,9.16
2017-09-20T02:19:03.809Z,9.24
2017-09-20T02:20:03.734Z,9.19
2017-09-20T02:21:03.395Z,9.11
2017-09-20T02:22:03.374Z,9.08
2017-09-20T02:23:03.706Z,9.12
2017-09-20T02:24:04.014Z,9
2017-09-20T02:25:03.676Z,9.04
2017-09-20T02:26:03.351Z,9.03
2017-09-20T02:27:03.990Z,9.04
2017-09-20T02:28:03.647Z,9.09
2017-09-20T02:29:03.306Z,9
2017-09-20T02:30:03.305Z,9
2017-09-20T02:31:03.618Z,9.03
2017-09-20T02:32:03.604Z,9
2017-09-20T02:33:03.630Z,8.98
2017-09-20T02:34:03.617Z,9.09
2017-09-20T02:35:03.577Z,9.03
2017-09-20T02:36:03.242Z,9
2017-09-20T02:37:03.224Z,8.98
2017-09-20T02:38:03.558Z,9.04
2017-09-20T02:39:03.546Z,9
2017-09-20T02:40:03.525Z,9.09
2017-09-20T02:41:03.514Z,9.03
2017-09-20T02:42:03.508Z,9.09
2017-09-20T02:43:03.523Z,9.08
2017-09-20T02:44:03.153Z,9.14
2017-09-20T02:45:03.508Z,9.17
2017-09-20T02:46:03.482Z,9.19
2017-09-20T02:47:03.816Z,9.24
2017-09-20T02:48:03.448Z,9.24
2017-09-20T02:49:03.432Z,9.19
2017-09-20T02:50:03.117Z,9.2
2017-09-20T02:51:03.431Z,9.29
2017-09-20T02:52:03.406Z,9.3
2017-09-20T02:53:03.395Z,9.34
2017-09-20T02:54:03.058Z,9.29
2017-09-20T02:55:03.063Z,9.37
2017-09-20T02:56:03.057Z,9.32
2017-09-20T02:57:03.354Z,9.32
2017-09-20T02:58:03.344Z,9.34
2017-09-20T02:59:03.346Z,9.44
2017-09-20T03:00:02.996Z,9.35
2017-09-20T03:01:02.989Z,9.41
2017-09-20T03:02:03.305Z,9.44
2017-09-20T03:03:03.300Z,9.48
2017-09-20T03:04:02.966Z,9.48
2017-09-20T03:05:03.282Z,9.48
2017-09-20T03:06:03.264Z,9.48
2017-09-20T03:07:03.592Z,9.48
2017-09-20T03:08:03.572Z,9.48
2017-09-20T03:09:03.234Z,9.44
2017-09-20T03:10:03.227Z,9.44
2017-09-20T03:11:03.213Z,9.47
2017-09-20T03:12:02.874Z,9.45
2017-09-20T03:13:02.862Z,9.45
2017-09-20T03:14:03.526Z,9.52
2017-09-20T03:15:03.172Z,9.47
2017-09-20T03:16:03.488Z,9.45
2017-09-20T03:17:03.484Z,9.42
2017-09-20T03:18:03.157Z,9.5
2017-09-20T03:19:03.153Z,9.52
2017-09-20T03:20:02.816Z,9.45
2017-09-20T03:21:03.124Z,9.48
2017-09-20T03:22:02.774Z,9.52
2017-09-20T03:23:03.088Z,9.53
2017-09-20T03:24:03.094Z,9.44
2017-09-20T03:25:03.075Z,9.42
2017-09-20T03:26:03.083Z,9.45
2017-09-20T03:27:03.050Z,9.5
2017-09-20T03:28:03.051Z,9.48
2017-09-20T03:29:02.708Z,9.45
2017-09-20T03:30:02.694Z,9.42
2017-09-20T03:31:02.719Z,9.47
2017-09-20T03:32:03.003Z,9.52
2017-09-20T03:33:03.002Z,9.47
2017-09-20T03:34:02.675Z,9.48
2017-09-20T03:35:02.643Z,9.41
2017-09-20T03:36:02.967Z,9.52
2017-09-20T03:37:02.960Z,9.48
2017-09-20T03:38:03.276Z,9.5
2017-09-20T03:39:02.607Z,9.47
2017-09-20T03:40:02.602Z,9.47
2017-09-20T03:41:02.615Z,9.47
2017-09-20T03:42:02.909Z,9.52
2017-09-20T03:43:02.571Z,9.5
2017-09-20T03:44:02.909Z,9.45
2017-09-20T03:45:02.583Z,9.55
2017-09-20T03:46:02.547Z,9.52
2017-09-20T03:47:02.856Z,9.5
2017-09-20T03:48:02.519Z,9.48
2017-09-20T03:49:02.841Z,9.48
2017-09-20T03:50:02.504Z,9.5
2017-09-20T03:51:02.511Z,9.52
2017-09-20T03:52:02.812Z,9.48
2017-09-20T03:53:02.803Z,9.5
2017-09-20T03:54:02.462Z,9.5
2017-09-20T03:55:03.147Z,9.48
2017-09-20T03:56:02.460Z,9.52
2017-09-20T03:57:02.772Z,9.47
2017-09-20T03:58:02.427Z,9.5
2017-09-20T03:59:02.841Z,9.52
2017-09-20T04:00:02.421Z,9.52
2017-09-20T04:01:02.391Z,9.45
2017-09-20T04:02:02.401Z,9.44
2017-09-20T04:03:02.701Z,9.47
2017-09-20T04:04:03.043Z,9.56
2017-09-20T04:05:02.354Z,9.47
2017-09-20T04:06:02.698Z,9.42
2017-09-20T04:07:02.362Z,9.45
2017-09-20T04:08:02.321Z,9.47
2017-09-20T04:09:02.662Z,9.48
2017-09-20T04:10:02.317Z,9.48
2017-09-20T04:11:02.618Z,9.45
2017-09-20T04:12:02.608Z,9.44
2017-09-20T04:13:02.328Z,9.42
2017-09-20T04:14:02.272Z,9.47
2017-09-20T04:15:02.901Z,9.5
2017-09-20T04:16:02.237Z,9.48
2017-09-20T04:17:02.229Z,9.48
2017-09-20T04:18:02.218Z,9.47
2017-09-20T04:19:02.534Z,9.47
2017-09-20T04:20:02.540Z,9.47
2017-09-20T04:21:02.189Z,9.44
2017-09-20T04:22:02.874Z,9.56
2017-09-20T04:23:02.526Z,9.5
2017-09-20T04:24:02.154Z,9.45
2017-09-20T04:25:02.495Z,9.48
2017-09-20T04:26:02.466Z,9.45
2017-09-20T04:27:02.459Z,9.5
2017-09-20T04:28:02.471Z,9.45
2017-09-20T04:29:02.432Z,9.47
2017-09-20T04:30:02.100Z,9.47
2017-09-20T04:31:02.425Z,9.45
2017-09-20T04:32:02.074Z,9.52
2017-09-20T04:33:02.075Z,9.55
2017-09-20T04:34:02.386Z,9.55
2017-09-20T04:35:02.380Z,9.47
2017-09-20T04:36:02.712Z,9.44
2017-09-20T04:37:02.027Z,9.5
2017-09-20T04:38:02.340Z,9.5
2017-09-20T04:39:02.001Z,9.48
2017-09-20T04:40:02.338Z,9.45
2017-09-20T04:41:01.980Z,9.48
2017-09-20T04:42:01.999Z,9.48
2017-09-20T04:43:01.974Z,9.47
2017-09-20T04:44:01.965Z,9.53
2017-09-20T04:45:02.278Z,9.52
2017-09-20T04:46:02.265Z,9.48
2017-09-20T04:47:02.248Z,9.48
2017-09-20T04:48:01.908Z,9.48
2017-09-20T04:49:02.228Z,9.55
2017-09-20T04:50:02.215Z,9.48
2017-09-20T04:51:02.204Z,9.52
2017-09-20T04:52:01.865Z,9.48
2017-09-20T04:53:01.859Z,9.48
2017-09-20T04:54:02.197Z,9.48
2017-09-20T04:55:02.523Z,9.42
2017-09-20T04:56:01.826Z,9.45
2017-09-20T04:57:01.840Z,9.5
2017-09-20T04:58:01.803Z,9.38
2017-09-20T04:59:01.793Z,9.42
2017-09-20T05:00:01.798Z,9.44
2017-09-20T05:01:01.776Z,9.37
2017-09-20T05:02:01.783Z,9.45
2017-09-20T05:03:02.084Z,9.34
2017-09-20T05:04:02.071Z,9.35
2017-09-20T05:05:01.733Z,9.42
2017-09-20T05:06:02.054Z,9.42
2017-09-20T05:07:02.049Z,9.32
2017-09-20T05:08:02.032Z,9.29
2017-09-20T05:09:01.688Z,9.35
2017-09-20T05:10:01.682Z,9.32
2017-09-20T05:11:02.030Z,9.37
2017-09-20T05:12:02.412Z,9.44
2017-09-20T05:13:02.005Z,9.47
2017-09-20T05:14:01.651Z,9.48
2017-09-20T05:15:01.974Z,9.47
2017-09-20T05:16:01.617Z,9.48
2017-09-20T05:17:01.606Z,9.48
2017-09-20T05:18:01.596Z,9.48
2017-09-20T05:19:01.586Z,9.52
2017-09-20T05:20:01.578Z,9.57
2017-09-20T05:21:01.601Z,9.48
2017-09-20T05:22:01.882Z,9.53
2017-09-20T05:23:01.546Z,9.52
2017-09-20T05:24:01.534Z,9.48
2017-09-20T05:25:02.222Z,9.5
2017-09-20T05:26:01.516Z,9.5
2017-09-20T05:27:01.834Z,9.48
2017-09-20T05:28:01.845Z,9.52
2017-09-20T05:29:01.827Z,9.56
2017-09-20T05:30:01.475Z,9.48
2017-09-20T05:31:01.790Z,9.45
2017-09-20T05:32:01.788Z,9.56
2017-09-20T05:33:01.453Z,9.48
2017-09-20T05:34:01.456Z,9.59
2017-09-20T05:35:01.745Z,9.6
2017-09-20T05:36:01.756Z,9.48
2017-09-20T05:37:01.434Z,9.53
2017-09-20T05:38:01.734Z,9.52
2017-09-20T05:39:01.710Z,9.5
2017-09-20T05:40:01.709Z,9.48
2017-09-20T05:41:01.689Z,9.5
2017-09-20T05:42:01.702Z,9.44
2017-09-20T05:43:02.002Z,9.52
2017-09-20T05:44:01.658Z,9.48
2017-09-20T05:45:01.660Z,9.48
2017-09-20T05:46:01.322Z,9.42
2017-09-20T05:47:01.297Z,9.45
2017-09-20T05:48:01.636Z,9.45
2017-09-20T05:49:01.276Z,9.44
2017-09-20T05:50:01.923Z,9.5
2017-09-20T05:51:01.254Z,9.45
2017-09-20T05:52:01.577Z,9.48
2017-09-20T05:53:01.237Z,9.45
2017-09-20T05:54:01.223Z,9.44
2017-09-20T05:55:01.925Z,9.5
2017-09-20T05:56:01.208Z,9.47
2017-09-20T05:57:01.523Z,9.48
2017-09-20T05:58:01.534Z,9.62
2017-09-20T05:59:01.886Z,9.56
2017-09-20T06:00:01.166Z,9.6
2017-09-20T06:01:01.151Z,9.57
2017-09-20T06:02:01.146Z,9.57
2017-09-20T06:03:01.464Z,9.59
2017-09-20T06:04:01.450Z,9.57
2017-09-20T06:05:01.452Z,9.62
2017-09-20T06:06:01.136Z,9.57
2017-09-20T06:07:01.753Z,9.59
2017-09-20T06:08:01.080Z,9.64
2017-09-20T06:09:01.082Z,9.66
2017-09-20T06:10:01.063Z,9.66
2017-09-20T06:11:01.081Z,9.7
2017-09-20T06:12:01.039Z,9.67
2017-09-20T06:13:01.381Z,9.71
2017-09-20T06:14:01.353Z,9.71
2017-09-20T06:15:01.003Z,9.77
2017-09-20T06:16:01.001Z,9.75
2017-09-20T06:17:01.422Z,9.71
2017-09-20T06:18:00.992Z,9.75
2017-09-20T06:19:00.969Z,9.78
2017-09-20T06:20:01.065Z,9.81
2017-09-20T06:21:01.273Z,9.81
2017-09-20T06:22:01.285Z,9.9
2017-09-20T06:23:01.265Z,9.82
2017-09-20T06:24:01.244Z,9.89
2017-09-20T06:25:00.905Z,9.92
2017-09-20T06:26:01.559Z,9.98
2017-09-20T06:27:01.552Z,9.99
2017-09-20T06:28:01.203Z,10.05
2017-09-20T06:29:01.192Z,10.05
2017-09-20T06:30:01.183Z,10.03
2017-09-20T06:31:00.848Z,10.1
2017-09-20T06:32:01.197Z,10.17
2017-09-20T06:33:01.159Z,10.23
2017-09-20T06:34:00.817Z,10.26
2017-09-20T06:35:01.466Z,10.33
2017-09-20T06:36:01.455Z,10.39
2017-09-20T06:37:00.803Z,10.44
2017-09-20T06:38:00.776Z,10.44
2017-09-20T06:39:00.768Z,10.55
2017-09-20T06:40:00.757Z,10.47
2017-09-20T06:41:01.073Z,10.61
2017-09-20T06:42:01.090Z,10.63
2017-09-20T06:43:00.743Z,10.67
2017-09-20T06:44:00.721Z,10.65
2017-09-20T06:45:01.382Z,10.66
2017-09-20T06:46:00.701Z,10.77
2017-09-20T06:47:01.019Z,10.8
2017-09-20T06:48:01.012Z,10.85
2017-09-20T06:49:01.027Z,10.97
2017-09-20T06:50:00.667Z,10.95
2017-09-20T06:51:00.654Z,11.03
2017-09-20T06:52:00.970Z,11.08
2017-09-20T06:53:00.632Z,11.06
2017-09-20T06:54:00.642Z,11.12
2017-09-20T06:55:00.617Z,11.02
2017-09-20T06:56:00.936Z,10.98
2017-09-20T06:57:01.265Z,11.06
2017-09-20T06:58:00.952Z,11.05
2017-09-20T06:59:00.583Z,11.03
2017-09-20T07:00:00.900Z,10.95
2017-09-20T07:01:01.240Z,10.98
2017-09-20T07:02:00.883Z,10.94
2017-09-20T07:03:00.868Z,10.88
2017-09-20T07:04:00.536Z,10.9
2017-09-20T07:05:00.876Z,10.91
2017-09-20T07:06:01.186Z,10.9
2017-09-20T07:07:00.850Z,11
2017-09-20T07:08:00.828Z,10.98
2017-09-20T07:09:00.819Z,11.03
2017-09-20T07:10:00.506Z,11.13
2017-09-20T07:11:00.473Z,11.06
2017-09-20T07:12:00.795Z,11.12
2017-09-20T07:13:00.480Z,11.23
2017-09-20T07:14:01.102Z,11.23
2017-09-20T07:15:00.442Z,11.31
2017-09-20T07:16:00.428Z,11.31
2017-09-20T07:17:00.767Z,11.33
2017-09-20T07:18:00.747Z,11.41
2017-09-20T07:19:00.733Z,11.42
2017-09-20T07:20:00.744Z,11.38
2017-09-20T07:21:00.713Z,11.49
2017-09-20T07:22:00.380Z,11.48
2017-09-20T07:23:00.706Z,11.56
2017-09-20T07:24:00.376Z,11.53
2017-09-20T07:25:00.687Z,11.48
2017-09-20T07:26:00.367Z,11.38
2017-09-20T07:27:00.662Z,11.42
2017-09-20T07:28:00.326Z,11.43
2017-09-20T07:29:00.992Z,11.43
2017-09-20T07:30:00.653Z,11.42
2017-09-20T07:31:00.314Z,11.46
2017-09-20T07:32:00.963Z,11.39
2017-09-20T07:33:00.297Z,11.46
2017-09-20T07:34:00.279Z,11.43
2017-09-20T07:35:00.598Z,11.38
2017-09-20T07:36:00.260Z,11.42
2017-09-20T07:37:00.251Z,11.48
2017-09-20T07:38:00.263Z,11.59
2017-09-20T07:39:00.567Z,11.63
2017-09-20T07:40:00.555Z,11.59
2017-09-20T07:41:00.549Z,11.61
2017-09-20T07:42:00.213Z,11.68
2017-09-20T07:43:00.225Z,11.61
2017-09-20T07:44:00.200Z,11.82
2017-09-20T07:45:00.207Z,11.78
2017-09-20T07:46:00.845Z,11.79
2017-09-20T07:47:00.497Z,11.98
2017-09-20T07:48:00.161Z,11.98
2017-09-20T07:49:00.155Z,12.04
2017-09-20T07:50:00.147Z,11.95
2017-09-20T07:51:00.139Z,12.04
2017-09-20T07:52:00.130Z,12.03
2017-09-20T07:53:00.798Z,12.03
2017-09-20T07:54:00.114Z,12.11
2017-09-20T07:55:00.435Z,12.1
2017-09-20T07:56:00.102Z,12.1
2017-09-20T07:57:00.790Z,12.11
2017-09-20T07:58:00.081Z,12.1
2017-09-20T07:59:00.097Z,12.2
2017-09-20T08:00:00.391Z,12.18
2017-09-20T08:01:00.060Z,12.19
2017-09-20T08:02:00.399Z,12.18
2017-09-20T08:03:00.701Z,12.19
2017-09-20T08:04:00.367Z,12.25
2017-09-20T08:05:00.682Z,12.22
2017-09-20T08:06:00.354Z,12.31
2017-09-20T08:07:00.011Z,12.33
2017-09-20T08:08:00.003Z,12.29
2017-09-20T08:09:00.341Z,12.38
2017-09-20T08:10:00.648Z,12.36
2017-09-20T08:10:59.979Z,12.28
2017-09-20T08:11:59.975Z,12.4
2017-09-20T08:13:00.301Z,12.33
2017-09-20T08:13:59.959Z,12.36
2017-09-20T08:15:00.286Z,12.23
2017-09-20T08:16:00.288Z,12.29
2017-09-20T08:16:59.931Z,12.22
2017-09-20T08:18:00.257Z,12.25
2017-09-20T08:18:59.915Z,12.19
2017-09-20T08:20:00.113Z,12.18
2017-09-20T08:20:59.927Z,12.16
2017-09-20T08:21:59.894Z,12.16
2017-09-20T08:23:00.215Z,12.15
2017-09-20T08:23:59.898Z,12.2
2017-09-20T08:25:00.199Z,12.33
2017-09-20T08:26:00.548Z,12.45
2017-09-20T08:26:59.856Z,12.59
2017-09-20T08:28:00.177Z,12.86
2017-09-20T08:28:59.858Z,13.11
2017-09-20T08:29:59.830Z,13.39
2017-09-20T08:31:00.175Z,13.75
2017-09-20T08:32:00.144Z,13.99
2017-09-20T08:32:59.807Z,14.13
2017-09-20T08:34:00.150Z,14.21
2017-09-20T08:34:59.793Z,14.23
2017-09-20T08:35:59.789Z,14.13
2017-09-20T08:37:00.109Z,14.08
2017-09-20T08:38:00.107Z,14.12
2017-09-20T08:38:59.769Z,13.9
2017-09-20T08:40:00.416Z,13.66
2017-09-20T08:40:59.760Z,13.53
2017-09-20T08:41:59.763Z,13.53
2017-09-20T08:42:59.739Z,13.32
2017-09-20T08:43:59.741Z,13.2
2017-09-20T08:44:59.728Z,13.06
2017-09-20T08:45:59.722Z,12.96
2017-09-20T08:46:59.722Z,12.86
2017-09-20T08:48:00.031Z,12.62
2017-09-20T08:49:00.029Z,12.56
2017-09-20T08:50:00.388Z,12.33
2017-09-20T08:51:00.012Z,12.29
2017-09-20T08:51:59.680Z,12.08
2017-09-20T08:52:59.689Z,12
2017-09-20T08:53:59.697Z,11.91
2017-09-20T08:54:59.672Z,11.81
2017-09-20T08:56:00.311Z,11.66
2017-09-20T08:56:59.639Z,11.71
2017-09-20T08:57:59.635Z,11.68
2017-09-20T08:58:59.956Z,11.67
2017-09-20T08:59:59.629Z,11.75
2017-09-20T09:00:59.940Z,11.85
2017-09-20T09:01:59.599Z,11.95
2017-09-20T09:02:59.919Z,12.03
2017-09-20T09:03:59.589Z,12.07
2017-09-20T09:04:59.578Z,12.19
2017-09-20T09:05:59.570Z,12.18
2017-09-20T09:06:59.585Z,12.16
2017-09-20T09:07:59.882Z,12.11
2017-09-20T09:08:59.567Z,12
2017-09-20T09:09:59.870Z,12.04
2017-09-20T09:10:59.865Z,12
2017-09-20T09:11:59.524Z,11.86
2017-09-20T09:12:59.874Z,11.97
2017-09-20T09:13:59.837Z,11.88
2017-09-20T09:15:00.158Z,11.88
2017-09-20T09:15:59.858Z,11.95
2017-09-20T09:16:59.831Z,11.85
2017-09-20T09:17:59.499Z,11.79
2017-09-20T09:19:00.159Z,11.63
2017-09-20T09:20:00.115Z,11.66
2017-09-20T09:20:59.783Z,11.6
2017-09-20T09:21:59.974Z,11.48
2017-09-20T09:22:59.768Z,11.49
2017-09-20T09:23:59.430Z,11.42
2017-09-20T09:24:59.436Z,11.26
2017-09-20T09:25:59.411Z,11.12
2017-09-20T09:27:00.061Z,11.1
2017-09-20T09:27:59.394Z,11.08
2017-09-20T09:28:59.734Z,11.05
2017-09-20T09:29:59.377Z,10.98
2017-09-20T09:30:59.709Z,10.92
2017-09-20T09:31:59.701Z,10.77
2017-09-20T09:32:59.359Z,10.77
2017-09-20T09:33:59.670Z,10.72
2017-09-20T09:34:59.665Z,10.7
2017-09-20T09:35:59.332Z,10.7
2017-09-20T09:36:59.315Z,10.63
2017-09-20T09:38:00.001Z,10.54
2017-09-20T09:38:59.298Z,10.54
2017-09-20T09:39:59.684Z,10.46
2017-09-20T09:40:59.624Z,10.46
2017-09-20T09:41:59.603Z,10.44
2017-09-20T09:42:59.634Z,10.42
2017-09-20T09:43:59.947Z,10.44
2017-09-20T09:44:59.589Z,10.31
2017-09-20T09:45:59.572Z,10.39
2017-09-20T09:46:59.899Z,10.28
2017-09-20T09:47:59.553Z,10.31
2017-09-20T09:48:59.209Z,10.36
2017-09-20T09:49:59.217Z,10.41
2017-09-20T09:50:59.854Z,10.49
2017-09-20T09:51:59.179Z,10.59
2017-09-20T09:52:59.498Z,10.54
2017-09-20T09:53:59.159Z,10.59
2017-09-20T09:54:59.479Z,10.67
2017-09-20T09:55:59.144Z,10.65
2017-09-20T09:56:59.463Z,10.72
2017-09-20T09:57:59.468Z,10.8
2017-09-20T09:58:59.118Z,10.94
2017-09-20T09:59:59.107Z,10.94
2017-09-20T10:00:59.766Z,10.94
2017-09-20T10:01:59.741Z,10.95
2017-09-20T10:02:59.742Z,11.06
2017-09-20T10:03:59.406Z,11.08
2017-09-20T10:04:59.062Z,11.08
2017-09-20T10:05:59.383Z,11.23
2017-09-20T10:06:59.051Z,11.27
2017-09-20T10:07:59.034Z,11.35
2017-09-20T10:08:59.691Z,11.46
2017-09-20T10:09:59.033Z,11.66
2017-09-20T10:10:59.335Z,11.7
2017-09-20T10:11:59.665Z,11.78
2017-09-20T10:12:58.990Z,11.91
2017-09-20T10:13:59.002Z,12.05
2017-09-20T10:14:59.631Z,12.22
2017-09-20T10:15:58.977Z,12.29
2017-09-20T10:16:59.622Z,12.41
2017-09-20T10:17:59.608Z,12.4
2017-09-20T10:18:58.942Z,12.61
2017-09-20T10:19:58.943Z,12.7
2017-09-20T10:20:58.931Z,12.69
2017-09-20T10:21:58.918Z,12.71
2017-09-20T10:22:58.909Z,12.73
2017-09-20T10:23:58.914Z,12.77
2017-09-20T10:24:58.889Z,12.66
2017-09-20T10:25:58.881Z,12.77
2017-09-20T10:26:58.903Z,12.76
2017-09-20T10:27:59.203Z,12.7
2017-09-20T10:28:59.210Z,12.73
2017-09-20T10:29:58.852Z,12.78
2017-09-20T10:30:58.854Z,12.84
2017-09-20T10:31:59.164Z,12.88
2017-09-20T10:32:59.195Z,12.91
2017-09-20T10:33:59.205Z,13.09
2017-09-20T10:34:58.815Z,13.07
2017-09-20T10:35:58.816Z,13.19
2017-09-20T10:36:58.799Z,13.25
2017-09-20T10:37:59.158Z,13.28
2017-09-20T10:38:59.454Z,13.4
2017-09-20T10:39:59.131Z,13.44
2017-09-20T10:40:58.782Z,13.45
2017-09-20T10:41:59.090Z,13.47
2017-09-20T10:42:59.431Z,13.5
2017-09-20T10:43:58.751Z,13.57
2017-09-20T10:44:59.075Z,13.53
2017-09-20T10:45:59.063Z,13.51
2017-09-20T10:46:58.737Z,13.65
2017-09-20T10:47:59.383Z,13.69
2017-09-20T10:48:58.731Z,13.75
2017-09-20T10:49:59.039Z,13.81
2017-09-20T10:50:59.057Z,13.78
2017-09-20T10:51:59.042Z,13.83
2017-09-20T10:52:59.013Z,13.79
2017-09-20T10:53:58.679Z,13.75
2017-09-20T10:54:58.672Z,13.79
2017-09-20T10:55:59.322Z,13.72
2017-09-20T10:56:59.001Z,13.76
2017-09-20T10:57:58.674Z,13.75
2017-09-20T10:58:58.973Z,13.72
2017-09-20T10:59:58.968Z,13.68
2017-09-20T11:00:58.635Z,13.79
2017-09-20T11:01:58.628Z,13.86
2017-09-20T11:02:58.948Z,13.86
2017-09-20T11:03:58.941Z,13.9
2017-09-20T11:04:59.265Z,13.91
2017-09-20T11:05:58.934Z,13.95
2017-09-20T11:06:58.593Z,13.91
2017-09-20T11:07:58.862Z,14.05
2017-09-20T11:08:58.939Z,14.08
2017-09-20T11:09:58.577Z,14.23
2017-09-20T11:10:59.061Z,14.16
2017-09-20T11:11:58.585Z,14.12
2017-09-20T11:12:58.903Z,14.19
2017-09-20T11:13:58.880Z,14.27
2017-09-20T11:14:58.548Z,14.28
2017-09-20T11:15:58.541Z,14.33
2017-09-20T11:16:58.859Z,14.28
2017-09-20T11:17:58.871Z,14.41
2017-09-20T11:18:58.852Z,14.52
2017-09-20T11:19:58.841Z,14.48
2017-09-20T11:20:58.507Z,14.38
2017-09-20T11:21:58.503Z,14.28
2017-09-20T11:22:58.512Z,14.08
2017-09-20T11:23:58.827Z,13.97
2017-09-20T11:24:58.833Z,13.83
2017-09-20T11:25:58.803Z,13.83
2017-09-20T11:26:58.843Z,13.6
2017-09-20T11:27:58.465Z,13.5
2017-09-20T11:28:58.486Z,13.47
2017-09-20T11:29:58.451Z,13.53
2017-09-20T11:30:58.463Z,13.5
2017-09-20T11:31:58.770Z,13.39
2017-09-20T11:32:58.776Z,13.47
2017-09-20T11:33:59.082Z,13.55
2017-09-20T11:34:58.755Z,13.6
2017-09-20T11:35:58.740Z,13.93
2017-09-20T11:36:58.425Z,14.08
2017-09-20T11:37:58.737Z,14.08
2017-09-20T11:38:58.723Z,14.08
2017-09-20T11:39:58.385Z,13.95
2017-09-20T11:40:58.722Z,13.95
2017-09-20T11:41:58.374Z,14.01
2017-09-20T11:42:58.368Z,14.13
2017-09-20T11:43:58.380Z,14.21
2017-09-20T11:44:58.355Z,14.08
2017-09-20T11:45:59.008Z,14.11
2017-09-20T11:46:58.690Z,14.05
2017-09-20T11:47:58.666Z,14.12
2017-09-20T11:48:58.657Z,14.05
2017-09-20T11:49:58.325Z,14.08
2017-09-20T11:50:58.974Z,13.94
2017-09-20T11:51:58.313Z,13.84
2017-09-20T11:52:58.304Z,13.66
2017-09-20T11:53:58.642Z,13.63
2017-09-20T11:54:58.298Z,13.4
2017-09-20T11:55:58.961Z,13.31
2017-09-20T11:56:58.657Z,13.2
2017-09-20T11:57:58.599Z,13.09
2017-09-20T11:58:58.264Z,12.92
2017-09-20T11:59:58.592Z,12.92
2017-09-20T12:00:58.582Z,12.94
2017-09-20T12:01:58.576Z,12.94
2017-09-20T12:02:58.906Z,12.91
2017-09-20T12:03:58.560Z,12.83
2017-09-20T12:04:58.556Z,12.73
2017-09-20T12:05:58.543Z,12.76
2017-09-20T12:06:58.538Z,12.65
2017-09-20T12:07:58.204Z,12.73
2017-09-20T12:08:58.545Z,12.92
2017-09-20T12:09:58.523Z,12.94
2017-09-20T12:10:58.515Z,12.94
2017-09-20T12:11:58.503Z,13.09
2017-09-20T12:12:58.850Z,13.14
2017-09-20T12:13:58.489Z,13.35
2017-09-20T12:14:58.150Z,13.37
2017-09-20T12:15:58.160Z,13.53
2017-09-20T12:16:58.138Z,13.68
2017-09-20T12:17:58.462Z,13.78
2017-09-20T12:18:58.473Z,13.94
2017-09-20T12:19:58.447Z,14.11
2017-09-20T12:20:58.125Z,14.3
2017-09-20T12:21:58.106Z,14.51
2017-09-20T12:22:58.128Z,14.48
2017-09-20T12:23:58.092Z,14.69
2017-09-20T12:24:58.441Z,14.7
2017-09-20T12:25:58.413Z,14.8
2017-09-20T12:26:58.425Z,14.89
2017-09-20T12:27:58.087Z,14.89
2017-09-20T12:28:58.434Z,14.98
2017-09-20T12:29:58.401Z,15.07
2017-09-20T12:30:58.391Z,15.3
2017-09-20T12:31:58.041Z,15.33
2017-09-20T12:32:58.366Z,15.37
2017-09-20T12:33:58.027Z,15.41
2017-09-20T12:34:58.034Z,15.3
2017-09-20T12:35:58.349Z,15.27
2017-09-20T12:36:58.335Z,15.22
2017-09-20T12:37:58.668Z,15.22
2017-09-20T12:38:58.336Z,15.22
2017-09-20T12:39:58.009Z,15.13
2017-09-20T12:40:58.314Z,15.04
2017-09-20T12:41:57.994Z,14.98
2017-09-20T12:42:57.991Z,14.94
2017-09-20T12:43:58.313Z,14.83
2017-09-20T12:44:57.958Z,14.83
2017-09-20T12:45:58.279Z,14.71
2017-09-20T12:46:57.948Z,14.69
2017-09-20T12:47:58.599Z,14.63
2017-09-20T12:48:58.277Z,14.56
2017-09-20T12:49:57.953Z,14.49
2017-09-20T12:50:57.927Z,14.39
2017-09-20T12:51:58.273Z,14.34
2017-09-20T12:52:57.915Z,14.38
2017-09-20T12:53:57.913Z,14.33
2017-09-20T12:54:57.940Z,14.28
2017-09-20T12:55:57.919Z,14.34
2017-09-20T12:56:57.891Z,14.39
2017-09-20T12:57:57.890Z,14.31
2017-09-20T12:58:58.559Z,14.42
2017-09-20T12:59:58.203Z,14.39
2017-09-20T13:00:58.526Z,14.49
2017-09-20T13:01:57.861Z,14.52
2017-09-20T13:02:57.856Z,14.56
2017-09-20T13:03:58.178Z,14.6
2017-09-20T13:04:58.504Z,14.61
2017-09-20T13:05:58.183Z,14.57
2017-09-20T13:06:57.855Z,14.6
2017-09-20T13:07:57.849Z,14.49